sensor_id;sensor_type;location;lat;lon;timestamp;temperature;humidity
26821;DHT22;37186;51.394;5.454;2023-06-01T00:02:33;21.70;52.30
26821;DHT22;37186;51.394;5.454;2023-06-01T00:05:33;21.70;52.10
26821;DHT22;37186;51.394;5.454;2023-06-01T00:08:34;21.60;52.30
26821;DHT22;37186;51.394;5.454;2023-06-01T00:11:35;21.60;52.40
26821;DHT22;37186;51.394;5.454;2023-06-01T00:14:35;21.50;52.40
26821;DHT22;37186;51.394;5.454;2023-06-01T00:17:36;21.50;52.40
26821;DHT22;37186;51.394;5.454;2023-06-01T00:20:37;21.40;52.50
26821;DHT22;37186;51.394;5.454;2023-06-01T00:23:39;21.30;52.50
26821;DHT22;37186;51.394;5.454;2023-06-01T00:26:41;21.30;52.70
26821;DHT22;37186;51.394;5.454;2023-06-01T00:29:41;21.30;52.80
26821;DHT22;37186;51.394;5.454;2023-06-01T00:32:42;21.20;52.80
26821;DHT22;37186;51.394;5.454;2023-06-01T00:35:42;21.20;52.90
26821;DHT22;37186;51.394;5.454;2023-06-01T00:38:43;21.10;52.80
26821;DHT22;37186;51.394;5.454;2023-06-01T00:41:43;21.00;52.90
26821;DHT22;37186;51.394;5.454;2023-06-01T00:44:44;21.00;52.90
26821;DHT22;37186;51.394;5.454;2023-06-01T00:47:45;20.90;52.90
26821;DHT22;37186;51.394;5.454;2023-06-01T00:50:46;20.90;53.00
26821;DHT22;37186;51.394;5.454;2023-06-01T00:53:47;20.80;53.20
26821;DHT22;37186;51.394;5.454;2023-06-01T00:56:48;20.80;53.10
26821;DHT22;37186;51.394;5.454;2023-06-01T00:59:48;20.70;53.10
26821;DHT22;37186;51.394;5.454;2023-06-01T01:02:49;20.70;53.10
26821;DHT22;37186;51.394;5.454;2023-06-01T01:05:59;20.60;53.40
26821;DHT22;37186;51.394;5.454;2023-06-01T01:12:31;20.50;53.40
26821;DHT22;37186;51.394;5.454;2023-06-01T01:15:44;20.40;53.40
26821;DHT22;37186;51.394;5.454;2023-06-01T01:18:51;20.30;53.60
26821;DHT22;37186;51.394;5.454;2023-06-01T01:22:20;20.30;53.70
26821;DHT22;37186;51.394;5.454;2023-06-01T01:25:52;20.20;53.90
26821;DHT22;37186;51.394;5.454;2023-06-01T01:29:06;20.20;53.40
26821;DHT22;37186;51.394;5.454;2023-06-01T01:32:09;20.10;53.50
26821;DHT22;37186;51.394;5.454;2023-06-01T01:35:11;20.00;53.70
26821;DHT22;37186;51.394;5.454;2023-06-01T01:38:12;20.00;53.80
26821;DHT22;37186;51.394;5.454;2023-06-01T01:41:12;20.00;53.90
26821;DHT22;37186;51.394;5.454;2023-06-01T01:44:14;19.90;53.80
26821;DHT22;37186;51.394;5.454;2023-06-01T01:47:22;19.80;53.80
26821;DHT22;37186;51.394;5.454;2023-06-01T01:50:29;19.80;53.90
26821;DHT22;37186;51.394;5.454;2023-06-01T01:53:30;19.80;54.00
26821;DHT22;37186;51.394;5.454;2023-06-01T01:56:31;19.70;54.00
26821;DHT22;37186;51.394;5.454;2023-06-01T01:59:32;19.60;54.10
26821;DHT22;37186;51.394;5.454;2023-06-01T02:02:34;19.60;54.20
26821;DHT22;37186;51.394;5.454;2023-06-01T02:05:34;19.50;54.20
26821;DHT22;37186;51.394;5.454;2023-06-01T02:08:35;19.50;54.30
26821;DHT22;37186;51.394;5.454;2023-06-01T02:11:36;19.40;54.40
26821;DHT22;37186;51.394;5.454;2023-06-01T02:14:37;19.40;54.60
26821;DHT22;37186;51.394;5.454;2023-06-01T02:17:37;19.40;54.50
26821;DHT22;37186;51.394;5.454;2023-06-01T02:20:38;19.30;54.50
26821;DHT22;37186;51.394;5.454;2023-06-01T02:23:38;19.30;54.40
26821;DHT22;37186;51.394;5.454;2023-06-01T02:26:42;19.20;54.30
26821;DHT22;37186;51.394;5.454;2023-06-01T02:29:43;19.10;54.40
26821;DHT22;37186;51.394;5.454;2023-06-01T02:32:43;19.10;54.50
26821;DHT22;37186;51.394;5.454;2023-06-01T02:35:48;19.00;54.50
26821;DHT22;37186;51.394;5.454;2023-06-01T02:38:49;19.00;54.40
26821;DHT22;37186;51.394;5.454;2023-06-01T02:41:50;18.90;54.60
26821;DHT22;37186;51.394;5.454;2023-06-01T02:44:50;18.90;54.70
26821;DHT22;37186;51.394;5.454;2023-06-01T02:47:51;18.80;55.40
26821;DHT22;37186;51.394;5.454;2023-06-01T02:50:51;18.70;54.60
26821;DHT22;37186;51.394;5.454;2023-06-01T02:53:52;18.70;54.60
26821;DHT22;37186;51.394;5.454;2023-06-01T02:56:52;18.60;54.70
26821;DHT22;37186;51.394;5.454;2023-06-01T02:59:53;18.60;54.70
26821;DHT22;37186;51.394;5.454;2023-06-01T03:02:53;18.50;55.10
26821;DHT22;37186;51.394;5.454;2023-06-01T03:05:54;18.50;55.10
26821;DHT22;37186;51.394;5.454;2023-06-01T03:08:55;18.40;54.90
26821;DHT22;37186;51.394;5.454;2023-06-01T03:11:56;18.40;55.10
26821;DHT22;37186;51.394;5.454;2023-06-01T03:14:56;18.30;55.20
26821;DHT22;37186;51.394;5.454;2023-06-01T03:17:57;18.30;55.20
26821;DHT22;37186;51.394;5.454;2023-06-01T03:20:57;18.20;56.00
26821;DHT22;37186;51.394;5.454;2023-06-01T03:23:58;18.20;55.50
26821;DHT22;37186;51.394;5.454;2023-06-01T03:26:58;18.10;55.30
26821;DHT22;37186;51.394;5.454;2023-06-01T03:29:59;18.10;55.50
26821;DHT22;37186;51.394;5.454;2023-06-01T03:33:01;18.00;55.60
26821;DHT22;37186;51.394;5.454;2023-06-01T03:36:02;18.00;56.50
26821;DHT22;37186;51.394;5.454;2023-06-01T03:39:03;18.00;56.10
26821;DHT22;37186;51.394;5.454;2023-06-01T03:42:08;17.90;56.00
26821;DHT22;37186;51.394;5.454;2023-06-01T03:45:10;17.90;56.10
26821;DHT22;37186;51.394;5.454;2023-06-01T03:48:10;17.90;56.70
26821;DHT22;37186;51.394;5.454;2023-06-01T03:51:11;17.80;56.10
26821;DHT22;37186;51.394;5.454;2023-06-01T03:54:12;17.80;56.30
26821;DHT22;37186;51.394;5.454;2023-06-01T03:57:13;17.80;56.40
26821;DHT22;37186;51.394;5.454;2023-06-01T04:00:13;17.80;56.50
26821;DHT22;37186;51.394;5.454;2023-06-01T04:03:20;17.80;56.40
26821;DHT22;37186;51.394;5.454;2023-06-01T04:06:22;17.80;56.30
26821;DHT22;37186;51.394;5.454;2023-06-01T04:09:24;17.80;56.70
26821;DHT22;37186;51.394;5.454;2023-06-01T04:12:25;17.70;56.40
26821;DHT22;37186;51.394;5.454;2023-06-01T04:15:26;17.70;56.40
26821;DHT22;37186;51.394;5.454;2023-06-01T04:18:26;17.70;56.30
26821;DHT22;37186;51.394;5.454;2023-06-01T04:21:27;17.70;56.70
26821;DHT22;37186;51.394;5.454;2023-06-01T04:24:27;17.70;56.60
26821;DHT22;37186;51.394;5.454;2023-06-01T04:27:28;17.60;56.50
26821;DHT22;37186;51.394;5.454;2023-06-01T04:30:28;17.60;56.40
26821;DHT22;37186;51.394;5.454;2023-06-01T04:33:29;17.60;56.80
26821;DHT22;37186;51.394;5.454;2023-06-01T04:36:29;17.60;56.50
26821;DHT22;37186;51.394;5.454;2023-06-01T04:39:34;17.60;56.50
26821;DHT22;37186;51.394;5.454;2023-06-01T04:42:40;17.50;56.50
26821;DHT22;37186;51.394;5.454;2023-06-01T04:45:49;17.50;56.40
26821;DHT22;37186;51.394;5.454;2023-06-01T04:48:50;17.40;56.60
26821;DHT22;37186;51.394;5.454;2023-06-01T04:51:59;17.40;56.90
26821;DHT22;37186;51.394;5.454;2023-06-01T04:55:02;17.40;57.10
26821;DHT22;37186;51.394;5.454;2023-06-01T04:58:05;17.30;56.80
26821;DHT22;37186;51.394;5.454;2023-06-01T05:01:06;17.30;57.10
26821;DHT22;37186;51.394;5.454;2023-06-01T05:04:07;17.30;57.10
26821;DHT22;37186;51.394;5.454;2023-06-01T05:07:07;17.30;56.80
26821;DHT22;37186;51.394;5.454;2023-06-01T05:10:10;17.30;57.10
26821;DHT22;37186;51.394;5.454;2023-06-01T05:13:11;17.30;57.10
26821;DHT22;37186;51.394;5.454;2023-06-01T05:16:12;17.20;57.20
26821;DHT22;37186;51.394;5.454;2023-06-01T05:19:13;17.20;57.20
26821;DHT22;37186;51.394;5.454;2023-06-01T05:22:13;17.20;57.20
26821;DHT22;37186;51.394;5.454;2023-06-01T05:25:14;17.20;57.20
26821;DHT22;37186;51.394;5.454;2023-06-01T05:28:14;17.20;57.80
26821;DHT22;37186;51.394;5.454;2023-06-01T05:31:15;17.20;57.30
26821;DHT22;37186;51.394;5.454;2023-06-01T05:34:16;17.10;57.30
26821;DHT22;37186;51.394;5.454;2023-06-01T05:37:17;17.20;57.70
26821;DHT22;37186;51.394;5.454;2023-06-01T05:40:17;17.20;57.50
26821;DHT22;37186;51.394;5.454;2023-06-01T05:43:18;17.10;57.90
26821;DHT22;37186;51.394;5.454;2023-06-01T05:46:18;17.10;57.30
26821;DHT22;37186;51.394;5.454;2023-06-01T05:49:19;17.10;57.50
26821;DHT22;37186;51.394;5.454;2023-06-01T05:52:20;17.20;57.40
26821;DHT22;37186;51.394;5.454;2023-06-01T05:55:20;17.10;57.20
26821;DHT22;37186;51.394;5.454;2023-06-01T05:58:21;17.10;57.40
26821;DHT22;37186;51.394;5.454;2023-06-01T06:01:22;17.10;57.30
26821;DHT22;37186;51.394;5.454;2023-06-01T06:04:23;17.10;57.90
26821;DHT22;37186;51.394;5.454;2023-06-01T06:07:23;17.10;57.70
26821;DHT22;37186;51.394;5.454;2023-06-01T06:10:24;17.10;57.20
26821;DHT22;37186;51.394;5.454;2023-06-01T06:13:25;17.10;57.70
26821;DHT22;37186;51.394;5.454;2023-06-01T06:16:25;17.10;57.90
26821;DHT22;37186;51.394;5.454;2023-06-01T06:19:26;17.10;57.90
26821;DHT22;37186;51.394;5.454;2023-06-01T06:22:26;17.10;58.30
26821;DHT22;37186;51.394;5.454;2023-06-01T06:25:27;17.10;57.50
26821;DHT22;37186;51.394;5.454;2023-06-01T06:28:27;17.10;57.40
26821;DHT22;37186;51.394;5.454;2023-06-01T06:31:28;17.00;57.70
26821;DHT22;37186;51.394;5.454;2023-06-01T06:34:28;17.10;58.00
26821;DHT22;37186;51.394;5.454;2023-06-01T06:37:35;17.10;58.00
26821;DHT22;37186;51.394;5.454;2023-06-01T06:40:36;17.10;58.10
26821;DHT22;37186;51.394;5.454;2023-06-01T06:43:36;17.10;58.00
26821;DHT22;37186;51.394;5.454;2023-06-01T06:46:37;17.10;57.60
26821;DHT22;37186;51.394;5.454;2023-06-01T06:49:37;17.10;57.80
26821;DHT22;37186;51.394;5.454;2023-06-01T06:52:38;17.10;57.50
26821;DHT22;37186;51.394;5.454;2023-06-01T06:55:38;17.10;57.60
26821;DHT22;37186;51.394;5.454;2023-06-01T06:58:39;17.10;57.80
26821;DHT22;37186;51.394;5.454;2023-06-01T07:01:40;17.10;57.70
26821;DHT22;37186;51.394;5.454;2023-06-01T07:04:41;17.00;57.50
26821;DHT22;37186;51.394;5.454;2023-06-01T07:07:41;17.10;57.70
26821;DHT22;37186;51.394;5.454;2023-06-01T07:10:42;17.00;57.30
26821;DHT22;37186;51.394;5.454;2023-06-01T07:13:43;17.00;57.80
26821;DHT22;37186;51.394;5.454;2023-06-01T07:16:43;17.00;58.10
26821;DHT22;37186;51.394;5.454;2023-06-01T07:19:44;17.00;57.80
26821;DHT22;37186;51.394;5.454;2023-06-01T07:22:44;17.00;57.70
26821;DHT22;37186;51.394;5.454;2023-06-01T07:25:45;17.00;58.30
26821;DHT22;37186;51.394;5.454;2023-06-01T07:28:45;17.00;58.10
26821;DHT22;37186;51.394;5.454;2023-06-01T07:31:46;17.00;58.10
26821;DHT22;37186;51.394;5.454;2023-06-01T07:34:47;17.00;57.90
26821;DHT22;37186;51.394;5.454;2023-06-01T07:37:47;17.00;57.70
26821;DHT22;37186;51.394;5.454;2023-06-01T07:40:49;17.00;58.10
26821;DHT22;37186;51.394;5.454;2023-06-01T07:43:50;17.10;58.10
26821;DHT22;37186;51.394;5.454;2023-06-01T07:46:51;17.10;57.90
26821;DHT22;37186;51.394;5.454;2023-06-01T07:49:52;17.10;58.10
26821;DHT22;37186;51.394;5.454;2023-06-01T07:52:52;17.10;59.10
26821;DHT22;37186;51.394;5.454;2023-06-01T07:55:54;17.10;58.50
26821;DHT22;37186;51.394;5.454;2023-06-01T07:58:54;17.10;57.80
26821;DHT22;37186;51.394;5.454;2023-06-01T08:01:55;17.20;57.70
26821;DHT22;37186;51.394;5.454;2023-06-01T08:04:56;17.20;58.00
26821;DHT22;37186;51.394;5.454;2023-06-01T08:07:57;17.20;58.40
26821;DHT22;37186;51.394;5.454;2023-06-01T08:10:57;17.20;58.10
26821;DHT22;37186;51.394;5.454;2023-06-01T08:13:58;17.30;58.70
26821;DHT22;37186;51.394;5.454;2023-06-01T08:17:01;17.30;58.70
26821;DHT22;37186;51.394;5.454;2023-06-01T08:20:02;17.30;58.60
26821;DHT22;37186;51.394;5.454;2023-06-01T08:23:08;17.40;58.10
26821;DHT22;37186;51.394;5.454;2023-06-01T08:26:09;17.40;58.60
26821;DHT22;37186;51.394;5.454;2023-06-01T08:29:10;17.40;58.60
26821;DHT22;37186;51.394;5.454;2023-06-01T08:32:12;17.40;58.50
26821;DHT22;37186;51.394;5.454;2023-06-01T08:35:12;17.40;59.00
26821;DHT22;37186;51.394;5.454;2023-06-01T08:38:13;17.50;57.90
26821;DHT22;37186;51.394;5.454;2023-06-01T08:41:24;17.50;58.40
26821;DHT22;37186;51.394;5.454;2023-06-01T08:44:27;17.50;58.20
26821;DHT22;37186;51.394;5.454;2023-06-01T08:47:29;17.50;58.10
26821;DHT22;37186;51.394;5.454;2023-06-01T08:50:30;17.60;58.30
26821;DHT22;37186;51.394;5.454;2023-06-01T08:53:32;17.60;58.50
26821;DHT22;37186;51.394;5.454;2023-06-01T08:56:33;17.70;58.10
26821;DHT22;37186;51.394;5.454;2023-06-01T08:59:34;17.70;58.60
26821;DHT22;37186;51.394;5.454;2023-06-01T09:02:35;17.70;58.00
26821;DHT22;37186;51.394;5.454;2023-06-01T09:05:36;17.70;57.90
26821;DHT22;37186;51.394;5.454;2023-06-01T09:08:37;17.70;57.80
26821;DHT22;37186;51.394;5.454;2023-06-01T09:11:37;17.80;58.70
26821;DHT22;37186;51.394;5.454;2023-06-01T09:14:38;17.80;58.20
26821;DHT22;37186;51.394;5.454;2023-06-01T09:17:39;17.90;58.20
26821;DHT22;37186;51.394;5.454;2023-06-01T09:20:40;17.90;57.90
26821;DHT22;37186;51.394;5.454;2023-06-01T09:23:41;17.90;57.90
26821;DHT22;37186;51.394;5.454;2023-06-01T09:26:42;18.00;58.80
26821;DHT22;37186;51.394;5.454;2023-06-01T09:29:55;18.00;58.70
26821;DHT22;37186;51.394;5.454;2023-06-01T09:33:13;18.00;58.60
26821;DHT22;37186;51.394;5.454;2023-06-01T09:36:24;18.10;58.30
26821;DHT22;37186;51.394;5.454;2023-06-01T09:39:25;18.10;58.20
26821;DHT22;37186;51.394;5.454;2023-06-01T09:42:34;18.10;58.10
26821;DHT22;37186;51.394;5.454;2023-06-01T09:45:34;18.20;58.30
26821;DHT22;37186;51.394;5.454;2023-06-01T09:48:37;18.20;58.10
26821;DHT22;37186;51.394;5.454;2023-06-01T09:51:38;18.30;58.20
26821;DHT22;37186;51.394;5.454;2023-06-01T09:54:47;18.30;58.10
26821;DHT22;37186;51.394;5.454;2023-06-01T09:57:47;18.30;58.40
26821;DHT22;37186;51.394;5.454;2023-06-01T10:00:50;18.40;58.40
26821;DHT22;37186;51.394;5.454;2023-06-01T10:03:51;18.50;58.40
26821;DHT22;37186;51.394;5.454;2023-06-01T10:06:57;18.50;58.70
26821;DHT22;37186;51.394;5.454;2023-06-01T10:09:59;18.60;58.60
26821;DHT22;37186;51.394;5.454;2023-06-01T10:13:02;18.70;58.50
26821;DHT22;37186;51.394;5.454;2023-06-01T10:16:03;18.70;58.30
26821;DHT22;37186;51.394;5.454;2023-06-01T10:19:04;18.70;58.40
26821;DHT22;37186;51.394;5.454;2023-06-01T10:22:05;18.80;58.40
26821;DHT22;37186;51.394;5.454;2023-06-01T10:25:10;18.80;58.40
26821;DHT22;37186;51.394;5.454;2023-06-01T10:28:11;18.90;58.40
26821;DHT22;37186;51.394;5.454;2023-06-01T10:34:41;19.10;58.50
26821;DHT22;37186;51.394;5.454;2023-06-01T10:37:42;19.10;58.50
26821;DHT22;37186;51.394;5.454;2023-06-01T10:40:44;19.20;58.70
26821;DHT22;37186;51.394;5.454;2023-06-01T10:43:45;19.20;58.30
26821;DHT22;37186;51.394;5.454;2023-06-01T10:46:46;19.30;58.50
26821;DHT22;37186;51.394;5.454;2023-06-01T10:52:47;19.40;58.30
26821;DHT22;37186;51.394;5.454;2023-06-01T10:55:47;19.50;58.40
26821;DHT22;37186;51.394;5.454;2023-06-01T11:02:09;19.60;58.20
26821;DHT22;37186;51.394;5.454;2023-06-01T11:05:45;19.70;58.30
26821;DHT22;37186;51.394;5.454;2023-06-01T11:08:52;19.70;58.10
26821;DHT22;37186;51.394;5.454;2023-06-01T11:15:09;19.80;58.30
26821;DHT22;37186;51.394;5.454;2023-06-01T11:21:42;20.00;58.30
26821;DHT22;37186;51.394;5.454;2023-06-01T11:24:44;20.10;58.10
26821;DHT22;37186;51.394;5.454;2023-06-01T11:27:47;20.20;58.00
26821;DHT22;37186;51.394;5.454;2023-06-01T11:30:48;20.20;58.20
26821;DHT22;37186;51.394;5.454;2023-06-01T11:33:53;20.30;58.30
26821;DHT22;37186;51.394;5.454;2023-06-01T11:36:54;20.40;58.10
26821;DHT22;37186;51.394;5.454;2023-06-01T11:40:05;20.40;58.10
26821;DHT22;37186;51.394;5.454;2023-06-01T11:43:07;20.50;57.90
26821;DHT22;37186;51.394;5.454;2023-06-01T11:46:08;20.60;58.10
26821;DHT22;37186;51.394;5.454;2023-06-01T11:49:12;20.60;57.90
26821;DHT22;37186;51.394;5.454;2023-06-01T11:52:17;20.70;57.90
26821;DHT22;37186;51.394;5.454;2023-06-01T11:55:18;20.80;57.50
26821;DHT22;37186;51.394;5.454;2023-06-01T11:58:27;20.80;57.50
26821;DHT22;37186;51.394;5.454;2023-06-01T12:01:28;20.90;57.60
26821;DHT22;37186;51.394;5.454;2023-06-01T12:04:28;21.00;57.60
26821;DHT22;37186;51.394;5.454;2023-06-01T12:07:29;21.00;57.70
26821;DHT22;37186;51.394;5.454;2023-06-01T12:10:30;21.10;57.70
26821;DHT22;37186;51.394;5.454;2023-06-01T12:13:31;21.10;57.60
26821;DHT22;37186;51.394;5.454;2023-06-01T12:19:54;21.30;57.40
26821;DHT22;37186;51.394;5.454;2023-06-01T12:22:54;21.30;57.30
26821;DHT22;37186;51.394;5.454;2023-06-01T12:25:56;21.40;57.40
26821;DHT22;37186;51.394;5.454;2023-06-01T12:28:59;21.40;57.50
26821;DHT22;37186;51.394;5.454;2023-06-01T12:31:59;21.50;57.40
26821;DHT22;37186;51.394;5.454;2023-06-01T12:35:03;21.60;57.40
26821;DHT22;37186;51.394;5.454;2023-06-01T12:38:10;21.60;57.40
26821;DHT22;37186;51.394;5.454;2023-06-01T12:41:12;21.70;57.30
26821;DHT22;37186;51.394;5.454;2023-06-01T12:44:18;21.80;57.40
26821;DHT22;37186;51.394;5.454;2023-06-01T12:47:19;21.80;57.20
26821;DHT22;37186;51.394;5.454;2023-06-01T12:50:19;21.90;57.30
26821;DHT22;37186;51.394;5.454;2023-06-01T12:53:19;22.00;57.20
26821;DHT22;37186;51.394;5.454;2023-06-01T12:56:20;22.10;56.80
26821;DHT22;37186;51.394;5.454;2023-06-01T12:59:21;22.10;56.60
26821;DHT22;37186;51.394;5.454;2023-06-01T13:02:21;22.10;56.80
26821;DHT22;37186;51.394;5.454;2023-06-01T13:05:23;22.20;56.80
26821;DHT22;37186;51.394;5.454;2023-06-01T13:08:24;22.20;56.50
26821;DHT22;37186;51.394;5.454;2023-06-01T13:11:24;22.30;56.50
26821;DHT22;37186;51.394;5.454;2023-06-01T13:14:25;22.40;56.60
26821;DHT22;37186;51.394;5.454;2023-06-01T13:17:26;22.40;56.40
26821;DHT22;37186;51.394;5.454;2023-06-01T13:20:27;22.50;56.50
26821;DHT22;37186;51.394;5.454;2023-06-01T13:23:27;22.50;56.50
26821;DHT22;37186;51.394;5.454;2023-06-01T13:26:29;22.60;56.50
26821;DHT22;37186;51.394;5.454;2023-06-01T13:29:29;22.70;56.20
26821;DHT22;37186;51.394;5.454;2023-06-01T13:32:30;22.70;56.20
26821;DHT22;37186;51.394;5.454;2023-06-01T13:35:30;22.80;56.60
26821;DHT22;37186;51.394;5.454;2023-06-01T13:38:31;22.80;55.60
26821;DHT22;37186;51.394;5.454;2023-06-01T13:41:31;22.90;56.50
26821;DHT22;37186;51.394;5.454;2023-06-01T13:44:32;23.00;55.50
26821;DHT22;37186;51.394;5.454;2023-06-01T13:47:33;23.00;55.50
26821;DHT22;37186;51.394;5.454;2023-06-01T13:50:33;23.10;55.40
26821;DHT22;37186;51.394;5.454;2023-06-01T13:53:34;23.20;55.60
26821;DHT22;37186;51.394;5.454;2023-06-01T13:56:34;23.20;55.50
26821;DHT22;37186;51.394;5.454;2023-06-01T13:59:35;23.20;55.50
26821;DHT22;37186;51.394;5.454;2023-06-01T14:02:36;23.40;55.70
26821;DHT22;37186;51.394;5.454;2023-06-01T14:05:36;23.40;55.50
26821;DHT22;37186;51.394;5.454;2023-06-01T14:08:37;23.40;55.50
26821;DHT22;37186;51.394;5.454;2023-06-01T14:11:37;23.50;55.30
26821;DHT22;37186;51.394;5.454;2023-06-01T14:14:38;23.60;54.80
26821;DHT22;37186;51.394;5.454;2023-06-01T14:17:38;23.70;55.20
26821;DHT22;37186;51.394;5.454;2023-06-01T14:20:39;23.70;54.60
26821;DHT22;37186;51.394;5.454;2023-06-01T14:23:40;23.80;55.10
26821;DHT22;37186;51.394;5.454;2023-06-01T14:26:44;23.80;54.70
26821;DHT22;37186;51.394;5.454;2023-06-01T14:29:44;23.90;55.10
26821;DHT22;37186;51.394;5.454;2023-06-01T14:32:45;24.00;54.40
26821;DHT22;37186;51.394;5.454;2023-06-01T14:35:46;24.10;54.30
26821;DHT22;37186;51.394;5.454;2023-06-01T14:38:46;24.20;54.00
26821;DHT22;37186;51.394;5.454;2023-06-01T14:41:47;24.20;54.30
26821;DHT22;37186;51.394;5.454;2023-06-01T14:44:47;24.30;54.40
26821;DHT22;37186;51.394;5.454;2023-06-01T14:47:48;24.40;53.90
26821;DHT22;37186;51.394;5.454;2023-06-01T14:50:48;24.50;54.10
26821;DHT22;37186;51.394;5.454;2023-06-01T14:53:49;24.60;53.90
26821;DHT22;37186;51.394;5.454;2023-06-01T14:56:49;24.70;54.30
26821;DHT22;37186;51.394;5.454;2023-06-01T14:59:50;24.90;54.10
26821;DHT22;37186;51.394;5.454;2023-06-01T15:02:51;25.00;53.80
26821;DHT22;37186;51.394;5.454;2023-06-01T15:05:51;25.10;54.10
26821;DHT22;37186;51.394;5.454;2023-06-01T15:08:52;25.30;54.20
26821;DHT22;37186;51.394;5.454;2023-06-01T15:11:52;25.40;53.50
26821;DHT22;37186;51.394;5.454;2023-06-01T15:14:53;25.60;53.70
26821;DHT22;37186;51.394;5.454;2023-06-01T15:17:53;25.80;54.00
26821;DHT22;37186;51.394;5.454;2023-06-01T15:20:55;25.90;53.80
26821;DHT22;37186;51.394;5.454;2023-06-01T15:23:57;26.10;54.20
26821;DHT22;37186;51.394;5.454;2023-06-01T15:26:57;26.20;54.20
26821;DHT22;37186;51.394;5.454;2023-06-01T15:29:58;26.40;53.90
26821;DHT22;37186;51.394;5.454;2023-06-01T15:32:58;26.50;53.30
26821;DHT22;37186;51.394;5.454;2023-06-01T15:35:59;26.60;52.80
26821;DHT22;37186;51.394;5.454;2023-06-01T15:39:01;26.70;53.50
26821;DHT22;37186;51.394;5.454;2023-06-01T15:42:09;26.80;53.30
26821;DHT22;37186;51.394;5.454;2023-06-01T15:45:09;26.80;52.90
26821;DHT22;37186;51.394;5.454;2023-06-01T15:48:10;26.80;52.90
26821;DHT22;37186;51.394;5.454;2023-06-01T15:51:11;26.90;51.90
26821;DHT22;37186;51.394;5.454;2023-06-01T15:54:11;26.80;52.20
26821;DHT22;37186;51.394;5.454;2023-06-01T15:57:12;26.80;52.10
26821;DHT22;37186;51.394;5.454;2023-06-01T16:00:13;26.70;52.30
26821;DHT22;37186;51.394;5.454;2023-06-01T16:03:13;26.70;52.00
26821;DHT22;37186;51.394;5.454;2023-06-01T16:06:15;26.80;52.10
26821;DHT22;37186;51.394;5.454;2023-06-01T16:09:16;26.80;52.50
26821;DHT22;37186;51.394;5.454;2023-06-01T16:12:16;26.70;52.30
26821;DHT22;37186;51.394;5.454;2023-06-01T16:15:17;26.70;51.60
26821;DHT22;37186;51.394;5.454;2023-06-01T16:18:17;26.60;51.50
26821;DHT22;37186;51.394;5.454;2023-06-01T16:21:19;26.50;51.20
26821;DHT22;37186;51.394;5.454;2023-06-01T16:24:19;26.50;51.30
26821;DHT22;37186;51.394;5.454;2023-06-01T16:27:20;26.40;51.20
26821;DHT22;37186;51.394;5.454;2023-06-01T16:30:20;26.30;50.20
26821;DHT22;37186;51.394;5.454;2023-06-01T16:33:21;26.20;50.60
26821;DHT22;37186;51.394;5.454;2023-06-01T16:36:21;26.20;49.90
26821;DHT22;37186;51.394;5.454;2023-06-01T16:39:22;26.10;50.90
26821;DHT22;37186;51.394;5.454;2023-06-01T16:42:22;26.10;51.40
26821;DHT22;37186;51.394;5.454;2023-06-01T16:45:23;26.10;51.60
26821;DHT22;37186;51.394;5.454;2023-06-01T16:48:24;26.20;51.30
26821;DHT22;37186;51.394;5.454;2023-06-01T16:51:24;26.20;51.90
26821;DHT22;37186;51.394;5.454;2023-06-01T16:54:25;26.30;51.20
26821;DHT22;37186;51.394;5.454;2023-06-01T16:57:25;26.40;52.00
26821;DHT22;37186;51.394;5.454;2023-06-01T17:00:28;26.50;51.90
26821;DHT22;37186;51.394;5.454;2023-06-01T17:03:29;26.70;52.20
26821;DHT22;37186;51.394;5.454;2023-06-01T17:06:29;26.80;50.60
26821;DHT22;37186;51.394;5.454;2023-06-01T17:09:31;26.80;51.10
26821;DHT22;37186;51.394;5.454;2023-06-01T17:12:31;26.80;50.60
26821;DHT22;37186;51.394;5.454;2023-06-01T17:15:32;26.80;51.20
26821;DHT22;37186;51.394;5.454;2023-06-01T17:18:33;26.90;51.00
26821;DHT22;37186;51.394;5.454;2023-06-01T17:21:33;26.90;51.70
26821;DHT22;37186;51.394;5.454;2023-06-01T17:24:36;27.00;50.60
26821;DHT22;37186;51.394;5.454;2023-06-01T17:27:38;27.10;51.20
26821;DHT22;37186;51.394;5.454;2023-06-01T17:30:40;27.20;51.70
26821;DHT22;37186;51.394;5.454;2023-06-01T17:33:41;27.30;51.00
26821;DHT22;37186;51.394;5.454;2023-06-01T17:36:42;27.40;51.40
26821;DHT22;37186;51.394;5.454;2023-06-01T17:39:42;27.50;51.00
26821;DHT22;37186;51.394;5.454;2023-06-01T17:42:43;27.60;51.60
26821;DHT22;37186;51.394;5.454;2023-06-01T17:45:43;27.70;50.60
26821;DHT22;37186;51.394;5.454;2023-06-01T17:48:44;27.80;49.90
26821;DHT22;37186;51.394;5.454;2023-06-01T17:51:44;27.90;50.60
26821;DHT22;37186;51.394;5.454;2023-06-01T17:54:45;27.90;49.90
26821;DHT22;37186;51.394;5.454;2023-06-01T17:57:45;27.90;49.90
26821;DHT22;37186;51.394;5.454;2023-06-01T18:00:46;27.90;48.40
26821;DHT22;37186;51.394;5.454;2023-06-01T18:03:46;27.80;48.70
26821;DHT22;37186;51.394;5.454;2023-06-01T18:06:47;27.80;49.60
26821;DHT22;37186;51.394;5.454;2023-06-01T18:09:48;27.70;47.20
26821;DHT22;37186;51.394;5.454;2023-06-01T18:12:49;27.60;47.80
26821;DHT22;37186;51.394;5.454;2023-06-01T18:15:49;27.40;48.90
26821;DHT22;37186;51.394;5.454;2023-06-01T18:18:50;27.40;47.80
26821;DHT22;37186;51.394;5.454;2023-06-01T18:21:51;27.20;48.70
26821;DHT22;37186;51.394;5.454;2023-06-01T18:24:51;27.00;46.70
26821;DHT22;37186;51.394;5.454;2023-06-01T18:27:53;26.80;47.00
26821;DHT22;37186;51.394;5.454;2023-06-01T18:30:53;26.60;46.90
26821;DHT22;37186;51.394;5.454;2023-06-01T18:33:54;26.40;47.20
26821;DHT22;37186;51.394;5.454;2023-06-01T18:36:54;26.20;47.20
26821;DHT22;37186;51.394;5.454;2023-06-01T18:39:55;26.00;46.90
26821;DHT22;37186;51.394;5.454;2023-06-01T18:42:55;25.90;47.50
26821;DHT22;37186;51.394;5.454;2023-06-01T18:45:56;25.70;47.00
26821;DHT22;37186;51.394;5.454;2023-06-01T18:48:56;25.50;47.30
26821;DHT22;37186;51.394;5.454;2023-06-01T18:51:57;25.30;47.20
26821;DHT22;37186;51.394;5.454;2023-06-01T18:54:57;25.20;46.80
26821;DHT22;37186;51.394;5.454;2023-06-01T18:57:58;25.00;47.50
26821;DHT22;37186;51.394;5.454;2023-06-01T19:00:58;24.80;47.60
26821;DHT22;37186;51.394;5.454;2023-06-01T19:04:00;24.70;47.40
26821;DHT22;37186;51.394;5.454;2023-06-01T19:07:00;24.50;47.60
26821;DHT22;37186;51.394;5.454;2023-06-01T19:10:07;24.30;47.90
26821;DHT22;37186;51.394;5.454;2023-06-01T19:13:08;24.20;47.60
26821;DHT22;37186;51.394;5.454;2023-06-01T19:16:14;24.00;47.90
26821;DHT22;37186;51.394;5.454;2023-06-01T19:19:23;23.90;47.60
26821;DHT22;37186;51.394;5.454;2023-06-01T19:22:29;23.80;48.10
26821;DHT22;37186;51.394;5.454;2023-06-01T19:25:31;23.70;47.70
26821;DHT22;37186;51.394;5.454;2023-06-01T19:28:32;23.50;47.90
26821;DHT22;37186;51.394;5.454;2023-06-01T19:31:35;23.40;48.00